Decoded Metar for GMAT (TAN TAN in MOROCCO) (IATA:TTA) | Meteo·Mobile Aviation Weather
aviador You're here:

GMAT Decoded Metar

TAN TAN in MOROCCO
Report Time2018-09-19 14:00:00
UTC Time2018-09-19 14:27:11
Flight Rules mvfr MVFR
Wind260° at 19 kt
W.Decomp.*RWY 21: 11.2 kt HW 15.4 kt RCW
W.Rank260° ranks 17
Current wind is above 260° avg. (8.7)
Visibility5000 m
Phenomena:N/A
Clouds:Few 016 Hf
Broken 100 Hf
Expected CloudBase > 4,000 ft AGL from Temp-Dew spread
Ceiling10,000 ft
Temp28°C (ISA +14)
Dew Point18°C (55% RH)
Heat Index28.9°C
AAT24.0°C
QNH1017 hPa
Density Alt2,441 ft
Elevation656 ft
Report Wrong Elevation
Raw Report
GMAT 191400Z 26019KT 5000 FEW016 BKN100 28/18 Q1017 NOSIG=

Extra information for GMAT:More info

Metar Taf Metar & Taf Last 4 Metars F.Rules Stats Wind Profile Meteogram Temp Stats Airport Information Weather charts Add Link Nearby VenuesMetar ALERT Operation Metar Decoded Social comments